createdAt,value
2022-11-15T00:02:56.554Z,6.60
2022-11-15T00:05:45.172Z,6.60
2022-11-15T00:08:32.993Z,6.60
2022-11-15T00:11:18.453Z,6.60
2022-11-15T00:14:04.932Z,6.60
2022-11-15T00:16:50.862Z,6.60
2022-11-15T00:19:39.484Z,6.50
2022-11-15T00:22:25.303Z,6.60
2022-11-15T00:25:14.388Z,6.50
2022-11-15T00:28:00.935Z,6.40
2022-11-15T00:30:47.156Z,6.50
2022-11-15T00:33:33.644Z,6.50
2022-11-15T00:36:20.330Z,6.50
2022-11-15T00:39:08.707Z,6.50
2022-11-15T00:41:55.040Z,6.50
2022-11-15T00:44:42.839Z,6.40
2022-11-15T00:47:31.529Z,6.40
2022-11-15T00:50:19.207Z,6.30
2022-11-15T00:53:07.228Z,6.30
2022-11-15T00:55:53.267Z,6.30
2022-11-15T00:58:39.714Z,6.40
2022-11-15T01:01:25.354Z,6.40
2022-11-15T01:04:13.633Z,6.40
2022-11-15T01:07:01.826Z,6.40
2022-11-15T01:09:50.800Z,6.40
2022-11-15T01:12:38.903Z,6.40
2022-11-15T01:15:27.684Z,6.40
2022-11-15T01:18:13.089Z,6.40
2022-11-15T01:20:59.289Z,6.40
2022-11-15T01:23:45.633Z,6.40
2022-11-15T01:26:31.801Z,6.40
2022-11-15T01:29:17.950Z,6.40
2022-11-15T01:32:06.486Z,6.50
2022-11-15T01:34:51.933Z,6.40
2022-11-15T01:37:40.493Z,6.50
2022-11-15T01:40:28.377Z,6.50
2022-11-15T01:43:28.537Z,6.60
2022-11-15T01:46:35.722Z,6.50
2022-11-15T01:49:24.920Z,6.50
2022-11-15T01:52:16.134Z,6.50
2022-11-15T01:55:10.634Z,6.50
2022-11-15T01:58:00.724Z,6.50
2022-11-15T02:00:50.676Z,6.40
2022-11-15T02:03:48.089Z,6.30
2022-11-15T02:06:36.804Z,6.30
2022-11-15T02:09:25.127Z,6.30
2022-11-15T02:12:14.053Z,6.30
2022-11-15T02:15:00.269Z,6.30
2022-11-15T02:17:59.154Z,6.30
2022-11-15T02:21:06.613Z,6.30
2022-11-15T02:24:10.724Z,6.30
2022-11-15T02:27:34.459Z,6.20
2022-11-15T02:30:54.016Z,6.20
2022-11-15T02:34:18.581Z,6.30
2022-11-15T02:37:19.892Z,6.30
2022-11-15T02:40:15.659Z,6.30
2022-11-15T02:43:30.005Z,6.30
2022-11-15T02:46:23.623Z,6.30
2022-11-15T02:49:14.559Z,6.30
2022-11-15T02:52:00.119Z,6.30
2022-11-15T02:54:57.118Z,6.40
2022-11-15T02:58:05.408Z,6.40
2022-11-15T03:00:59.823Z,6.40
2022-11-15T03:04:33.869Z,6.40
2022-11-15T03:07:36.417Z,6.40
2022-11-15T03:10:46.318Z,6.40
2022-11-15T03:13:43.299Z,6.40
2022-11-15T03:16:39.090Z,6.40
2022-11-15T03:19:46.773Z,6.40
2022-11-15T03:22:40.379Z,6.40
2022-11-15T03:25:29.245Z,6.40
2022-11-15T03:28:26.211Z,6.40
2022-11-15T03:31:35.454Z,6.30
2022-11-15T03:34:21.139Z,6.30
2022-11-15T03:37:09.527Z,6.30
2022-11-15T03:39:57.590Z,6.30
2022-11-15T03:42:46.574Z,6.40
2022-11-15T03:46:07.509Z,6.30
2022-11-15T03:49:16.571Z,6.20
2022-11-15T03:52:04.882Z,6.30
2022-11-15T03:54:55.824Z,6.30
2022-11-15T03:57:44.562Z,6.30
2022-11-15T04:00:31.108Z,6.30
2022-11-15T04:03:19.164Z,6.30
2022-11-15T04:06:05.860Z,6.20
2022-11-15T04:08:51.573Z,6.20
2022-11-15T04:11:37.683Z,6.30
2022-11-15T04:14:23.612Z,6.20
2022-11-15T04:17:09.689Z,6.30
2022-11-15T04:20:14.155Z,6.30
2022-11-15T04:23:20.675Z,6.30
2022-11-15T04:26:13.510Z,6.30
2022-11-15T04:29:18.820Z,6.40
2022-11-15T04:32:09.262Z,6.40
2022-11-15T04:34:55.909Z,6.30
2022-11-15T04:37:46.428Z,6.30
2022-11-15T04:40:35.825Z,6.30
2022-11-15T04:43:21.655Z,6.30
2022-11-15T04:46:08.508Z,6.30
2022-11-15T04:48:58.519Z,6.30
2022-11-15T04:51:45.489Z,6.40
2022-11-15T04:54:31.309Z,6.40
2022-11-15T04:57:22.170Z,6.40
2022-11-15T05:00:10.593Z,6.40
2022-11-15T05:03:16.369Z,6.30
2022-11-15T05:06:02.724Z,6.40
2022-11-15T05:08:48.581Z,6.30
2022-11-15T05:11:34.296Z,6.30
2022-11-15T05:14:20.543Z,6.30
2022-11-15T05:17:08.734Z,6.30
2022-11-15T05:19:54.656Z,6.40
2022-11-15T05:22:40.566Z,6.40
2022-11-15T05:25:29.548Z,6.40
2022-11-15T05:28:15.174Z,6.40
2022-11-15T05:31:10.913Z,6.30
2022-11-15T05:33:57.552Z,6.20
2022-11-15T05:36:45.808Z,6.30
2022-11-15T05:39:36.486Z,6.30
2022-11-15T05:42:23.329Z,6.30
2022-11-15T05:45:12.240Z,6.30
2022-11-15T05:48:01.656Z,6.40
2022-11-15T05:50:48.618Z,6.30
2022-11-15T05:53:35.859Z,6.30
2022-11-15T05:56:21.537Z,6.30
2022-11-15T05:59:10.647Z,6.30
2022-11-15T06:01:59.138Z,6.30
2022-11-15T06:04:45.113Z,6.40
2022-11-15T06:07:33.308Z,6.40
2022-11-15T06:10:19.231Z,6.30
2022-11-15T06:13:07.480Z,6.10
2022-11-15T06:15:57.505Z,6.10
2022-11-15T06:18:43.099Z,6.20
2022-11-15T06:21:30.127Z,6.20
2022-11-15T06:24:15.545Z,6.20
2022-11-15T06:27:01.566Z,6.20
2022-11-15T06:29:49.074Z,6.20
2022-11-15T06:32:37.756Z,6.20
2022-11-15T06:35:26.096Z,6.30
2022-11-15T06:38:15.265Z,6.30
2022-11-15T06:41:08.548Z,6.20
2022-11-15T06:43:58.398Z,6.30
2022-11-15T06:46:46.445Z,6.40
2022-11-15T06:49:32.542Z,6.40
2022-11-15T06:52:20.110Z,6.40
2022-11-15T06:55:10.164Z,6.50
2022-11-15T06:57:56.272Z,6.40
2022-11-15T07:00:42.721Z,6.40
2022-11-15T07:03:31.061Z,6.40
2022-11-15T07:06:17.345Z,6.50
2022-11-15T07:09:04.340Z,6.40
2022-11-15T07:11:52.632Z,6.50
2022-11-15T07:14:38.198Z,6.50
2022-11-15T07:17:24.508Z,6.60
2022-11-15T07:20:10.936Z,6.60
2022-11-15T07:23:06.608Z,6.60
2022-11-15T07:25:52.157Z,6.60
2022-11-15T07:28:38.242Z,6.60
2022-11-15T07:31:24.217Z,6.50
2022-11-15T07:34:10.934Z,6.60
2022-11-15T07:36:56.435Z,6.60
2022-11-15T07:39:42.872Z,6.70
2022-11-15T07:42:47.038Z,6.80
2022-11-15T07:45:36.478Z,6.90
2022-11-15T07:48:23.275Z,6.90
2022-11-15T07:51:17.772Z,6.90
2022-11-15T07:54:03.314Z,7.00
2022-11-15T07:56:49.435Z,7.10
2022-11-15T07:59:35.973Z,7.10
2022-11-15T08:02:25.324Z,7.10
2022-11-15T08:05:15.373Z,7.10
2022-11-15T08:08:02.725Z,7.10
2022-11-15T08:10:51.016Z,7.10
2022-11-15T08:13:37.297Z,7.00
2022-11-15T08:16:25.864Z,7.10
2022-11-15T08:19:12.257Z,7.00
2022-11-15T08:21:57.767Z,7.10
2022-11-15T08:24:44.534Z,7.00
2022-11-15T08:27:29.992Z,7.00
2022-11-15T08:30:18.564Z,7.10
2022-11-15T08:33:04.626Z,7.20
2022-11-15T08:35:51.183Z,7.20
2022-11-15T08:38:39.139Z,7.20
2022-11-15T08:41:34.090Z,7.30
2022-11-15T08:44:21.577Z,7.20
2022-11-15T08:47:11.211Z,7.30
2022-11-15T08:49:59.201Z,7.30
2022-11-15T08:52:49.205Z,7.40
2022-11-15T08:55:40.317Z,7.40
2022-11-15T08:58:26.677Z,7.50
2022-11-15T09:01:23.216Z,7.60
2022-11-15T09:04:09.402Z,7.60
2022-11-15T09:06:55.300Z,7.60
2022-11-15T09:09:41.498Z,7.60
2022-11-15T09:12:29.440Z,7.70
2022-11-15T09:15:16.788Z,7.80
2022-11-15T09:18:04.682Z,7.80
2022-11-15T09:20:50.910Z,7.80
2022-11-15T09:23:39.459Z,7.80
2022-11-15T09:26:28.609Z,7.90
2022-11-15T09:29:16.466Z,8.00
2022-11-15T09:32:02.599Z,8.10
2022-11-15T09:34:51.536Z,8.10
2022-11-15T09:37:37.795Z,8.20
2022-11-15T09:40:24.248Z,8.20
2022-11-15T09:43:33.251Z,8.30
2022-11-15T09:46:43.957Z,8.40
2022-11-15T09:49:38.152Z,8.40
2022-11-15T09:52:20.341Z,8.50
2022-11-15T09:54:54.402Z,8.50
2022-11-15T09:57:40.003Z,8.50
2022-11-15T10:00:45.472Z,8.60
2022-11-15T10:03:15.236Z,8.60
2022-11-15T10:05:46.445Z,8.70
2022-11-15T10:08:47.389Z,8.70
2022-11-15T10:11:40.025Z,8.80
2022-11-15T10:14:20.138Z,8.80
2022-11-15T10:17:06.499Z,8.90
2022-11-15T10:20:06.164Z,9.00
2022-11-15T10:22:47.903Z,9.10
2022-11-15T10:25:29.857Z,9.10
2022-11-15T10:28:05.265Z,9.20
2022-11-15T10:30:35.956Z,9.20
2022-11-15T10:33:47.446Z,9.20
2022-11-15T10:36:14.510Z,9.30
2022-11-15T10:38:53.696Z,9.30
2022-11-15T10:41:35.545Z,9.30
2022-11-15T10:44:18.148Z,9.30
2022-11-15T10:46:49.607Z,9.40
2022-11-15T10:49:21.881Z,9.50
2022-11-15T10:52:01.476Z,9.50
2022-11-15T10:54:36.132Z,9.50
2022-11-15T10:57:15.130Z,9.60
2022-11-15T10:59:49.271Z,9.70
2022-11-15T11:02:40.957Z,9.70
2022-11-15T11:05:41.012Z,9.80
2022-11-15T11:08:08.654Z,9.80
2022-11-15T11:10:51.754Z,9.90
2022-11-15T11:13:28.844Z,9.90
2022-11-15T11:16:23.821Z,10.00
2022-11-15T11:19:15.620Z,10.00
2022-11-15T11:22:02.452Z,10.10
2022-11-15T11:24:48.891Z,10.00
2022-11-15T11:27:35.187Z,10.10
2022-11-15T11:30:05.167Z,10.10
2022-11-15T11:33:29.779Z,10.20
2022-11-15T11:35:56.864Z,10.20
2022-11-15T11:38:33.735Z,10.30
2022-11-15T11:41:01.152Z,10.30
2022-11-15T11:44:15.575Z,10.40
2022-11-15T11:46:56.199Z,10.40
2022-11-15T11:49:33.824Z,10.40
2022-11-15T11:52:03.614Z,10.40
2022-11-15T11:54:36.992Z,10.40
2022-11-15T11:57:16.244Z,10.40
2022-11-15T11:59:57.009Z,10.50
2022-11-15T12:02:39.703Z,10.50
2022-11-15T12:05:31.702Z,10.50
2022-11-15T12:08:25.529Z,10.50
2022-11-15T12:11:15.991Z,10.60
2022-11-15T12:13:44.832Z,10.60
2022-11-15T12:16:24.267Z,10.70
2022-11-15T12:18:56.560Z,10.70
2022-11-15T12:21:35.999Z,10.70
2022-11-15T12:24:22.181Z,10.70
2022-11-15T12:27:26.392Z,10.70
2022-11-15T12:30:04.910Z,10.70
2022-11-15T12:32:38.580Z,10.60
2022-11-15T12:35:35.836Z,10.70
2022-11-15T12:38:10.113Z,10.70
2022-11-15T12:41:14.925Z,10.70
2022-11-15T12:43:44.977Z,10.70
2022-11-15T12:46:44.890Z,10.80
2022-11-15T12:49:38.215Z,10.80
2022-11-15T12:52:08.145Z,10.80
2022-11-15T12:54:41.534Z,10.80
2022-11-15T12:57:24.829Z,10.70
2022-11-15T13:00:25.437Z,10.70
2022-11-15T13:03:17.905Z,10.70
2022-11-15T13:05:45.254Z,10.70
2022-11-15T13:08:38.897Z,10.70
2022-11-15T13:11:49.313Z,10.80
2022-11-15T13:14:38.092Z,10.70
2022-11-15T13:17:19.660Z,10.70
2022-11-15T13:19:50.804Z,10.70
2022-11-15T13:22:36.917Z,10.80
2022-11-15T13:25:27.808Z,10.70
2022-11-15T13:27:59.000Z,10.70
2022-11-15T13:30:31.188Z,10.80
2022-11-15T13:33:08.882Z,10.70
2022-11-15T13:35:41.343Z,10.80
2022-11-15T13:38:28.535Z,10.70
2022-11-15T13:40:56.993Z,10.70
2022-11-15T13:43:29.395Z,10.70
2022-11-15T13:46:18.616Z,10.70
2022-11-15T13:48:51.579Z,10.70
2022-11-15T13:51:25.845Z,10.70
2022-11-15T13:53:58.457Z,10.60
2022-11-15T13:56:27.690Z,10.60
2022-11-15T13:58:55.932Z,10.60
2022-11-15T14:01:24.120Z,10.60
2022-11-15T14:04:04.137Z,10.70
2022-11-15T14:06:32.237Z,10.70
2022-11-15T14:09:22.847Z,10.70
2022-11-15T14:11:53.938Z,10.50
2022-11-15T14:14:25.705Z,10.60
2022-11-15T14:16:58.637Z,10.60
2022-11-15T14:19:29.006Z,10.60
2022-11-15T14:22:30.879Z,10.60
2022-11-15T14:25:19.756Z,10.70
2022-11-15T14:28:10.317Z,10.70
2022-11-15T14:30:37.921Z,10.50
2022-11-15T14:33:35.485Z,10.40
2022-11-15T14:36:16.414Z,10.40
2022-11-15T14:38:46.972Z,10.40
2022-11-15T14:41:19.421Z,10.40
2022-11-15T14:43:50.173Z,10.40
2022-11-15T14:46:18.124Z,10.30
2022-11-15T14:48:45.622Z,10.20
2022-11-15T14:51:19.084Z,10.00
2022-11-15T14:53:47.581Z,10.00
2022-11-15T14:56:20.279Z,10.10
2022-11-15T14:58:47.366Z,9.90
2022-11-15T15:01:35.103Z,9.90
2022-11-15T15:04:07.407Z,9.80
2022-11-15T15:06:37.069Z,9.70
2022-11-15T15:09:04.690Z,9.50
2022-11-15T15:11:34.371Z,9.40
2022-11-15T15:14:02.267Z,9.40
2022-11-15T15:16:29.861Z,9.30
2022-11-15T15:18:59.289Z,9.30
2022-11-15T15:21:32.342Z,9.20
2022-11-15T15:24:06.339Z,9.10
2022-11-15T15:26:37.248Z,9.00
2022-11-15T15:29:04.561Z,8.90
2022-11-15T15:31:34.156Z,8.90
2022-11-15T15:34:03.814Z,8.90
2022-11-15T15:36:33.310Z,8.80
2022-11-15T15:39:00.495Z,8.70
2022-11-15T15:41:27.873Z,8.70
2022-11-15T15:43:57.359Z,8.70
2022-11-15T15:46:25.821Z,8.70
2022-11-15T15:48:52.936Z,8.70
2022-11-15T15:51:24.761Z,8.60
2022-11-15T15:53:58.115Z,8.60
2022-11-15T15:56:25.580Z,8.60
2022-11-15T15:58:59.943Z,8.60
2022-11-15T16:01:27.310Z,8.60
2022-11-15T16:03:54.552Z,8.60
2022-11-15T16:06:37.589Z,8.60
2022-11-15T16:09:21.335Z,8.60
2022-11-15T16:11:51.311Z,8.50
2022-11-15T16:14:21.024Z,8.50
2022-11-15T16:16:48.467Z,8.50
2022-11-15T16:19:17.724Z,8.40
2022-11-15T16:21:45.217Z,8.40
2022-11-15T16:24:14.535Z,8.40
2022-11-15T16:26:48.493Z,8.30
2022-11-15T16:29:15.789Z,8.30
2022-11-15T16:31:45.669Z,8.20
2022-11-15T16:34:12.916Z,8.20
2022-11-15T16:36:47.279Z,8.10
2022-11-15T16:39:16.473Z,8.10
2022-11-15T16:41:47.819Z,8.10
2022-11-15T16:44:15.410Z,8.10
2022-11-15T16:46:49.348Z,8.00
2022-11-15T16:49:16.633Z,7.90
2022-11-15T16:51:47.802Z,7.90
2022-11-15T16:54:15.297Z,7.90
2022-11-15T16:56:45.258Z,7.90
2022-11-15T16:59:21.001Z,7.80
2022-11-15T17:01:50.803Z,7.70
2022-11-15T17:04:22.812Z,7.70
2022-11-15T17:06:50.630Z,7.60
2022-11-15T17:09:20.226Z,7.50
2022-11-15T17:11:50.609Z,7.40
2022-11-15T17:14:20.502Z,7.30
2022-11-15T17:16:50.681Z,7.20
2022-11-15T17:19:20.516Z,7.10
2022-11-15T17:21:49.715Z,7.10
2022-11-15T17:24:21.036Z,7.10
2022-11-15T17:26:51.342Z,7.00
2022-11-15T17:29:18.707Z,7.00
2022-11-15T17:31:51.005Z,7.00
2022-11-15T17:34:18.316Z,7.00
2022-11-15T17:36:45.659Z,7.00
2022-11-15T17:39:12.736Z,7.00
2022-11-15T17:41:40.301Z,6.90
2022-11-15T17:44:07.442Z,6.90
2022-11-15T17:46:40.813Z,6.90
2022-11-15T17:49:08.126Z,7.00
2022-11-15T17:51:35.502Z,7.00
2022-11-15T17:54:02.649Z,7.00
2022-11-15T17:56:31.202Z,7.00
2022-11-15T17:59:00.438Z,7.00
2022-11-15T18:01:36.824Z,6.90
2022-11-15T18:04:09.267Z,6.90
2022-11-15T18:06:39.494Z,6.90
2022-11-15T18:09:08.489Z,6.90
2022-11-15T18:11:41.543Z,7.00
2022-11-15T18:14:15.057Z,6.90
2022-11-15T18:16:47.600Z,6.90
2022-11-15T18:19:18.983Z,6.80
2022-11-15T18:21:57.189Z,6.80
2022-11-15T18:24:30.312Z,6.80
2022-11-15T18:27:06.439Z,6.80
2022-11-15T18:29:37.605Z,6.80
2022-11-15T18:32:15.458Z,6.80
2022-11-15T18:34:42.962Z,6.80
2022-11-15T18:37:10.640Z,6.70
2022-11-15T18:39:47.442Z,6.80
2022-11-15T18:42:20.303Z,6.60
2022-11-15T18:44:47.465Z,6.60
2022-11-15T18:47:16.998Z,6.50
2022-11-15T18:49:44.407Z,6.60
2022-11-15T18:52:16.276Z,6.60
2022-11-15T18:54:45.750Z,6.60
2022-11-15T18:57:15.470Z,6.60
2022-11-15T18:59:42.540Z,6.60
2022-11-15T19:02:14.687Z,6.60
2022-11-15T19:04:41.967Z,6.50
2022-11-15T19:07:09.580Z,6.40
2022-11-15T19:09:38.902Z,6.40
2022-11-15T19:12:08.881Z,6.40
2022-11-15T19:14:38.240Z,6.40
2022-11-15T19:17:07.905Z,6.40
2022-11-15T19:19:37.553Z,6.40
2022-11-15T19:22:04.909Z,6.50
2022-11-15T19:24:34.550Z,6.30
2022-11-15T19:27:05.170Z,6.20
2022-11-15T19:29:37.210Z,6.20
2022-11-15T19:32:05.265Z,6.20
2022-11-15T19:34:35.517Z,6.10
2022-11-15T19:37:03.364Z,6.10
2022-11-15T19:39:30.636Z,6.10
2022-11-15T19:42:01.582Z,6.10
2022-11-15T19:44:28.685Z,6.20
2022-11-15T19:46:56.477Z,6.20
2022-11-15T19:49:24.128Z,6.30
2022-11-15T19:51:51.527Z,6.40
2022-11-15T19:54:18.723Z,6.30
2022-11-15T19:56:48.647Z,6.40
2022-11-15T19:59:17.353Z,6.30
2022-11-15T20:01:52.599Z,6.30
2022-11-15T20:04:19.890Z,6.20
2022-11-15T20:06:47.626Z,6.30
2022-11-15T20:09:17.284Z,6.30
2022-11-15T20:11:45.083Z,6.30
2022-11-15T20:14:13.358Z,6.30
2022-11-15T20:16:43.455Z,6.30
2022-11-15T20:19:12.361Z,6.30
2022-11-15T20:21:45.597Z,6.30
2022-11-15T20:24:15.359Z,6.30
2022-11-15T20:26:46.931Z,6.30
2022-11-15T20:29:17.132Z,6.20
2022-11-15T20:31:45.039Z,6.20
2022-11-15T20:34:14.373Z,6.20
2022-11-15T20:36:46.412Z,6.30
2022-11-15T20:39:15.956Z,6.30
2022-11-15T20:41:43.313Z,6.30
2022-11-15T20:44:12.687Z,6.20
2022-11-15T20:46:42.740Z,6.40
2022-11-15T20:49:09.821Z,6.40
2022-11-15T20:51:39.980Z,6.30
2022-11-15T20:54:12.339Z,6.50
2022-11-15T20:56:41.973Z,6.50
2022-11-15T20:59:12.294Z,6.50
2022-11-15T21:01:42.096Z,6.60
2022-11-15T21:04:13.790Z,6.60
2022-11-15T21:06:48.872Z,6.70
2022-11-15T21:09:35.207Z,6.60
2022-11-15T21:12:11.443Z,6.70
2022-11-15T21:14:43.985Z,6.60
2022-11-15T21:17:14.084Z,6.70
2022-11-15T21:19:43.979Z,6.60
2022-11-15T21:22:14.253Z,6.60
2022-11-15T21:24:41.845Z,6.60
2022-11-15T21:27:11.747Z,6.50
2022-11-15T21:29:45.567Z,6.50
2022-11-15T21:32:15.529Z,6.60
2022-11-15T21:34:45.809Z,6.60
2022-11-15T21:37:16.093Z,6.60
2022-11-15T21:39:46.235Z,6.60
2022-11-15T21:42:16.515Z,6.60
2022-11-15T21:44:49.017Z,6.70
2022-11-15T21:47:16.482Z,6.60
2022-11-15T21:49:43.586Z,6.70
2022-11-15T21:52:11.137Z,6.70
2022-11-15T21:54:41.578Z,6.70
2022-11-15T21:57:09.204Z,6.70
2022-11-15T21:59:56.346Z,6.80
2022-11-15T22:02:23.935Z,6.80
2022-11-15T22:04:55.740Z,6.60
2022-11-15T22:07:25.643Z,6.70
2022-11-15T22:09:53.197Z,6.70
2022-11-15T22:12:28.472Z,6.60
2022-11-15T22:14:57.435Z,6.60
2022-11-15T22:17:45.087Z,6.60
2022-11-15T22:20:42.903Z,6.60
2022-11-15T22:23:08.304Z,6.80
2022-11-15T22:25:38.128Z,6.70
2022-11-15T22:28:07.960Z,6.70
2022-11-15T22:30:37.975Z,6.70
2022-11-15T22:33:05.431Z,6.70
2022-11-15T22:35:37.419Z,6.80
2022-11-15T22:38:08.246Z,6.80
2022-11-15T22:40:36.256Z,6.90
2022-11-15T22:43:05.413Z,6.80
2022-11-15T22:45:33.433Z,6.70
2022-11-15T22:48:00.877Z,6.70
2022-11-15T22:50:28.046Z,6.70
2022-11-15T22:52:58.163Z,6.70
2022-11-15T22:55:27.503Z,6.70
2022-11-15T22:58:01.906Z,6.70
2022-11-15T23:00:31.683Z,6.70
2022-11-15T23:02:59.681Z,6.70
2022-11-15T23:05:29.400Z,6.60
2022-11-15T23:07:59.984Z,6.70
2022-11-15T23:10:45.848Z,6.60
2022-11-15T23:13:17.503Z,6.60
2022-11-15T23:16:10.227Z,6.60
2022-11-15T23:18:41.760Z,6.50
2022-11-15T23:21:37.230Z,6.50
2022-11-15T23:24:08.742Z,6.50
2022-11-15T23:26:36.219Z,6.40
2022-11-15T23:29:07.981Z,6.40
2022-11-15T23:32:01.436Z,6.40
2022-11-15T23:34:35.755Z,6.50
2022-11-15T23:37:03.782Z,6.50
2022-11-15T23:39:33.599Z,6.60
2022-11-15T23:42:04.548Z,6.60
2022-11-15T23:44:38.557Z,6.60
2022-11-15T23:47:05.842Z,6.50
2022-11-15T23:49:33.299Z,6.40
2022-11-15T23:52:05.272Z,6.40
2022-11-15T23:54:39.799Z,6.50
2022-11-15T23:57:12.122Z,6.40
2022-11-15T23:59:43.831Z,6.50
